Streetsville, Canada
Current Conditions -  °F | °C
As of 4:00 PM on Thursday 27 Nov 2014 (Local Time) from CYYZ Reporting Station
Broken Clouds Broken Clouds  
Wind Chill: 29°   Ceiling: 5700
Heat Index: 36°   Visibility: 15mi
Dew Point: 21°   Wind: 9mph
Humidity: 56%   Direction: 320°NW
Pressure: 30.05"   Gusts: NA
Location:  43.58°N, 79.72°W
Report Text: CYYZ 272100Z 32008KT 15SM FEW038 BKN057 BKN074 02/M06 A3005 RMK CU1SC4AC2 SLP183
Loading
Personal Weather Stations






























Interactive Weather Map New forecast layout! Learn more

10-Day Weather Forecast

Advertisements
Track Severe Weather on mobile